Time;durP1;ratioP1;P1;durP2;ratioP2;P2;SDS_P1;SDS_P2;PMS_P1;PMS_P2;Temp;Humidity;BMP_temperature;BMP_pressure;BME280_temperature;BME280_humidity;BME280_pressure;Samples;Min_cycle;Max_cycle;Signal;HPM_P1;HPM_P2
2022/09/26 00:00:47;;;;;;;9.20;5.57;;;;;;;12.43;75.43;100742.94;3612895;39;20108;-63
2022/09/26 00:03:13;;;;;;;6.78;4.72;;;;;;;12.42;75.30;100745.72;3614638;39;20067;-64
2022/09/26 00:05:39;;;;;;;7.03;4.63;;;;;;;12.40;75.40;100737.75;3606821;39;20469;-63
2022/09/26 00:08:06;;;;;;;7.05;4.78;;;;;;;12.40;75.85;100736.88;3608874;39;20134;-64
2022/09/26 00:10:33;;;;;;;6.95;4.88;;;;;;;11.72;75.86;100623.03;3610579;39;20081;-64
2022/09/26 00:13:01;;;;;;;6.22;5.10;;;;;;;11.52;75.63;100580.50;3618616;39;20061;-64
2022/09/26 00:15:27;;;;;;;7.28;4.70;;;;;;;12.36;75.72;100714.66;3597440;39;20058;-64
2022/09/26 00:17:52;;;;;;;7.90;5.22;;;;;;;12.41;75.48;100719.75;3611820;39;20311;-63
2022/09/26 00:20:18;;;;;;;8.60;4.72;;;;;;;12.42;75.63;100713.38;3610238;39;20061;-64
2022/09/26 00:22:44;;;;;;;6.72;5.18;;;;;;;12.43;75.89;100709.69;3614668;39;20054;-63
2022/09/26 00:25:09;;;;;;;6.75;4.57;;;;;;;12.45;75.04;100718.53;3608211;39;20152;-63
2022/09/26 00:27:35;;;;;;;7.32;4.85;;;;;;;11.70;75.46;100587.28;3611544;39;20054;-64
2022/09/26 00:30:01;;;;;;;12.48;5.70;;;;;;;12.44;75.84;100706.03;3610932;39;20055;-64
2022/09/26 00:32:27;;;;;;;8.23;4.93;;;;;;;12.37;75.53;100689.44;3614189;39;20054;-65
2022/09/26 00:34:52;;;;;;;9.73;5.20;;;;;;;12.45;75.67;100694.28;3608340;39;20058;-64
2022/09/26 00:37:18;;;;;;;6.28;4.85;;;;;;;12.45;75.33;100689.75;3609657;39;20054;-64
2022/09/26 00:39:43;;;;;;;8.40;5.32;;;;;;;12.39;75.71;100689.31;3613422;39;20092;-64
2022/09/26 00:42:14;;;;;;;10.65;4.93;;;;;;;12.45;75.48;100689.75;3603603;39;20313;-64
2022/09/26 00:44:45;;;;;;;5.90;4.78;;;;;;;12.45;75.64;100688.88;3616007;39;20058;-63
2022/09/26 00:47:39;;;;;;;6.22;5.03;;;;;;;12.50;75.38;100678.66;3600831;39;20069;-64
2022/09/26 00:50:14;;;;;;;6.35;4.53;;;;;;;12.28;75.27;100633.50;3607881;39;20077;-63
2022/09/26 00:53:02;;;;;;;5.82;4.75;;;;;;;12.56;74.92;100670.13;3614979;39;20122;-63
2022/09/26 00:55:36;;;;;;;8.52;5.07;;;;;;;11.88;75.18;100563.59;3609387;39;20628;-64
2022/09/26 00:58:17;;;;;;;7.03;5.13;;;;;;;12.60;75.09;100679.69;3610581;39;20070;-63
2022/09/26 01:00:48;;;;;;;8.02;4.43;;;;;;;12.61;74.85;100659.84;3603726;39;20042;-63
2022/09/26 01:03:17;;;;;;;4.55;4.15;;;;;;;12.64;74.37;100654.22;3610344;39;20048;-63
2022/09/26 01:05:45;;;;;;;6.43;4.47;;;;;;;12.70;74.86;100651.06;3606570;39;20401;-63
2022/09/26 01:08:19;;;;;;;5.97;4.55;;;;;;;12.68;74.34;100639.53;3607555;39;20059;-64
2022/09/26 01:10:44;;;;;;;;;;;;;;;12.70;74.85;100637.59;3607379;39;20410;-63
2022/09/26 01:13:11;;;;;;;7.20;4.50;;;;;;;12.72;74.63;100630.25;3612004;39;19962;-64
2022/09/26 01:15:37;;;;;;;9.38;4.75;;;;;;;12.74;74.06;100622.91;3606441;39;20051;-64
2022/09/26 01:18:06;;;;;;;6.43;3.90;;;;;;;12.03;73.94;100497.84;3607678;39;20055;-64
2022/09/26 01:21:03;;;;;;;6.30;4.43;;;;;;;12.76;73.85;100615.56;3615617;39;20051;-63
2022/09/26 01:23:53;;;;;;;6.63;3.80;;;;;;;12.78;73.46;100619.03;3582811;39;20064;-63
2022/09/26 01:26:34;;;;;;;8.30;4.28;;;;;;;12.82;73.33;100613.41;3609833;39;20055;-64
2022/09/26 01:29:08;;;;;;;8.98;4.25;;;;;;;12.83;73.96;100605.16;3601664;39;20102;-64
2022/09/26 01:31:39;;;;;;;11.63;4.50;;;;;;;12.86;73.93;100599.53;3611625;39;20067;-64
2022/09/26 01:34:24;;;;;;;6.10;4.00;;;;;;;12.00;73.20;100448.72;3598237;39;20445;-64
2022/09/26 01:37:13;;;;;;;7.28;4.22;;;;;;;12.88;73.36;100585.97;3614752;39;20154;-64
2022/09/26 01:40:01;;;;;;;7.28;3.38;;;;;;;12.83;73.28;100571.94;3613270;39;20058;-63
2022/09/26 01:42:42;;;;;;;5.97;3.70;;;;;;;12.85;72.98;100570.00;3613886;39;20061;-64
2022/09/26 01:45:20;;;;;;;8.10;4.15;;;;;;;12.84;73.19;100573.66;3610496;39;20055;-64
2022/09/26 01:48:12;;;;;;;4.13;3.55;;;;;;;12.84;72.92;100557.47;3612061;39;20104;-64
2022/09/26 01:50:52;;;;;;;6.28;4.00;;;;;;;12.82;72.54;100552.22;3602781;39;20301;-63
2022/09/26 01:53:29;;;;;;;7.60;3.63;;;;;;;12.84;72.76;100547.53;3607884;39;20051;-63
2022/09/26 01:56:16;;;;;;;8.13;3.40;;;;;;;12.81;72.24;100541.50;3612866;39;20094;-64
2022/09/26 01:58:53;;;;;;;6.75;3.35;;;;;;;11.53;71.97;100318.44;3610125;39;20486;-64
2022/09/26 02:01:24;;;;;;;3.78;3.08;;;;;;;12.80;72.24;100529.88;3611777;39;20089;-63
2022/09/26 02:04:02;;;;;;;5.35;3.30;;;;;;;12.67;72.00;100502.97;3610435;39;20046;-63
2022/09/26 02:06:40;;;;;;;7.75;3.10;;;;;;;12.78;71.16;100523.72;3618188;39;20365;-63
2022/09/26 02:09:23;;;;;;;8.35;3.00;;;;;;;12.77;71.85;100509.38;3615530;39;20124;-64
2022/09/26 02:11:55;;;;;;;8.70;3.47;;;;;;;12.77;71.32;100504.00;3615273;39;20056;-63
2022/09/26 02:14:35;;;;;;;5.70;3.30;;;;;;;12.72;71.23;100499.94;3616326;39;20103;-64
2022/09/26 02:17:11;;;;;;;7.15;3.35;;;;;;;12.65;71.30;100483.34;3608971;39;20063;-64
2022/09/26 02:19:51;;;;;;;6.95;3.97;;;;;;;12.70;71.05;100491.94;3612802;39;20329;-63
2022/09/26 02:22:18;;;;;;;4.32;3.10;;;;;;;12.66;71.39;100487.78;3611454;39;20053;-63
2022/09/26 02:24:44;;;;;;;6.68;3.28;;;;;;;12.66;71.63;100487.78;3612152;39;20344;-64
2022/09/26 02:27:10;;;;;;;5.88;3.30;;;;;;;12.66;71.96;100476.13;3612425;39;20055;-63
2022/09/26 02:29:35;;;;;;;6.55;3.00;;;;;;;12.63;71.83;100479.91;3612991;39;20364;-65
2022/09/26 02:32:14;;;;;;;8.15;3.13;;;;;;;12.63;72.08;100469.13;3613716;39;20054;-64
2022/09/26 02:34:47;;;;;;;7.05;3.38;;;;;;;12.61;71.75;100464.81;3608246;39;20062;-65
2022/09/26 02:37:20;;;;;;;4.72;2.65;;;;;;;12.58;72.01;100457.81;3613802;39;20051;-63
2022/09/26 02:39:50;;;;;;;8.57;2.92;;;;;;;12.54;71.83;100453.66;3612318;39;20052;-64
2022/09/26 02:42:22;;;;;;;4.40;2.80;;;;;;;12.61;71.55;100454.91;3614070;39;20063;-63
2022/09/26 02:45:37;;;;;;;5.40;3.00;;;;;;;12.61;71.67;100454.91;3606916;39;20058;-63
2022/09/26 02:48:32;;;;;;;3.92;2.80;;;;;;;12.56;71.89;100443.63;3614136;39;20046;-64
2022/09/26 02:51:29;;;;;;;7.53;2.92;;;;;;;12.59;71.62;100451.47;3614261;39;20059;-63
2022/09/26 02:54:20;;;;;;;5.78;3.03;;;;;;;12.58;71.51;100438.94;3613740;39;20312;-63
2022/09/26 02:57:22;;;;;;;4.18;2.80;;;;;;;12.57;70.99;100436.38;3615916;39;20365;-63
2022/09/26 03:00:02;;;;;;;5.57;2.70;;;;;;;12.59;71.00;100439.81;3610027;39;20055;-63
2022/09/26 03:02:50;;;;;;;5.03;2.72;;;;;;;12.56;71.15;100413.97;3609447;39;20052;-64
2022/09/26 03:05:29;;;;;;;6.55;2.72;;;;;;;12.61;70.27;100419.84;3611622;39;20131;-63
2022/09/26 03:08:13;;;;;;;6.60;2.55;;;;;;;12.61;70.57;100419.00;3615172;39;20070;-63
2022/09/26 03:10:41;;;;;;;;;;;;;;;12.61;70.60;100416.28;3614808;39;20850;-64
2022/09/26 03:13:15;;;;;;;5.47;2.72;;;;;;;12.60;69.85;100426.22;3611641;39;19939;-64
2022/09/26 03:15:51;;;;;;;9.63;2.80;;;;;;;12.54;70.30;100395.19;3605411;39;20053;-63
2022/09/26 03:18:27;;;;;;;3.38;2.25;;;;;;;12.57;69.29;100394.09;3610331;39;22220;-64
2022/09/26 03:20:53;;;;;;;6.07;2.40;;;;;;;12.62;69.72;100394.59;3611685;39;20043;-63
2022/09/26 03:23:26;;;;;;;5.78;2.30;;;;;;;12.65;69.17;100391.66;3610888;39;20093;-63
2022/09/26 03:26:03;;;;;;;2.97;2.08;;;;;;;12.59;69.30;100381.38;3609360;39;21772;-63
2022/09/26 03:28:28;;;;;;;6.55;2.30;;;;;;;12.64;69.71;100381.84;3611546;39;20123;-65
2022/09/26 03:30:54;;;;;;;3.33;2.45;;;;;;;12.65;69.08;100394.34;3611259;39;20050;-63
2022/09/26 03:33:20;;;;;;;4.68;2.60;;;;;;;12.49;69.06;100348.00;3611901;39;20094;-64
2022/09/26 03:35:45;;;;;;;9.32;3.05;;;;;;;12.67;68.66;100381.63;3609900;39;22081;-63
2022/09/26 03:38:11;;;;;;;6.13;2.15;;;;;;;12.66;68.36;100370.97;3615210;39;20051;-64
2022/09/26 03:40:38;;;;;;;6.47;2.40;;;;;;;12.69;68.49;100360.78;3612610;39;20522;-63
2022/09/26 03:43:03;;;;;;;4.72;2.10;;;;;;;12.71;68.28;100358.81;3614284;39;20049;-64
2022/09/26 03:45:29;;;;;;;4.10;2.20;;;;;;;12.72;68.33;100347.06;3610886;39;20046;-64
2022/09/26 03:47:57;;;;;;;4.18;2.13;;;;;;;11.75;68.43;100186.59;3609090;39;20043;-65
2022/09/26 03:50:23;;;;;;;3.90;1.98;;;;;;;12.70;69.12;100349.03;3609842;39;20424;-63
2022/09/26 03:52:49;;;;;;;5.30;2.33;;;;;;;12.70;69.16;100350.88;3611204;39;20059;-63
2022/09/26 03:55:14;;;;;;;4.82;2.17;;;;;;;12.59;69.73;100332.84;3612161;39;20127;-63
2022/09/26 03:57:40;;;;;;;5.25;2.22;;;;;;;12.65;70.19;100343.13;3610293;39;20057;-63
2022/09/26 04:00:06;;;;;;;4.85;2.10;;;;;;;12.64;70.50;100332.47;3610650;39;20071;-62
2022/09/26 04:02:33;;;;;;;4.60;2.72;;;;;;;12.60;70.75;100326.47;3607790;39;20059;-63
2022/09/26 04:04:59;;;;;;;3.72;2.30;;;;;;;12.52;71.26;100323.50;3608455;39;20293;-63
2022/09/26 04:07:25;;;;;;;6.30;2.90;;;;;;;12.49;71.76;100321.03;3610705;39;20063;-62
2022/09/26 04:09:51;;;;;;;9.52;2.45;;;;;;;12.46;72.05;100315.88;3610858;39;20378;-62
2022/09/26 04:12:19;;;;;;;9.68;2.60;;;;;;;12.42;71.74;100311.72;3613941;39;20088;-63
2022/09/26 04:14:45;;;;;;;4.22;2.30;;;;;;;12.41;72.92;100302.78;3610912;39;20051;-63
2022/09/26 04:17:12;;;;;;;5.60;2.50;;;;;;;12.39;72.48;100295.78;3614278;39;20054;-63
2022/09/26 04:19:39;;;;;;;6.18;2.75;;;;;;;12.37;72.44;100289.63;3610805;39;20066;-62
2022/09/26 04:22:07;;;;;;;6.43;2.50;;;;;;;12.35;73.06;100283.53;3612757;39;20062;-63
2022/09/26 04:24:33;;;;;;;6.88;2.58;;;;;;;12.32;72.57;100282.78;3608903;39;20535;-63
2022/09/26 04:26:59;;;;;;;6.90;2.45;;;;;;;11.53;72.48;100144.31;3608101;39;20139;-62
2022/09/26 04:29:26;;;;;;;7.32;2.60;;;;;;;12.29;72.52;100272.22;3609484;39;20066;-63
2022/09/26 04:31:52;;;;;;;4.13;2.17;;;;;;;12.26;72.56;100267.09;3600984;39;20043;-63
2022/09/26 04:34:18;;;;;;;13.05;6.18;;;;;;;12.27;72.48;100263.44;3608466;39;20050;-62
2022/09/26 04:36:44;;;;;;;5.80;2.83;;;;;;;12.24;72.68;100258.28;3609145;39;20055;-64
2022/09/26 04:39:10;;;;;;;9.00;2.70;;;;;;;12.19;72.90;100238.06;3609681;39;20083;-64
2022/09/26 04:41:36;;;;;;;5.55;2.20;;;;;;;12.28;72.75;100254.34;3608783;39;20071;-63
2022/09/26 04:44:02;;;;;;;3.10;1.80;;;;;;;12.25;72.06;100246.50;3611199;39;20066;-63
2022/09/26 04:46:29;;;;;;;5.95;2.20;;;;;;;12.26;72.15;100217.72;3609701;39;20071;-63
2022/09/26 04:48:58;;;;;;;5.65;2.05;;;;;;;12.22;72.15;100214.41;3607013;39;20047;-63
2022/09/26 04:51:27;;;;;;;4.80;2.30;;;;;;;12.26;72.12;100204.25;3596644;39;20127;-63
2022/09/26 04:53:54;;;;;;;4.68;1.95;;;;;;;12.13;72.12;100185.50;3610343;39;20385;-64
2022/09/26 04:56:23;;;;;;;4.38;2.00;;;;;;;12.23;71.96;100208.03;3609697;39;20058;-63
2022/09/26 04:58:50;;;;;;;8.30;2.25;;;;;;;12.27;71.78;100208.66;3609729;39;20043;-62
2022/09/26 05:01:19;;;;;;;6.32;2.20;;;;;;;12.30;72.27;100190.44;3608046;39;20377;-63
2022/09/26 05:03:45;;;;;;;5.57;2.90;;;;;;;12.28;72.15;100189.69;3610120;39;20138;-62
2022/09/26 05:06:13;;;;;;;7.68;2.30;;;;;;;12.25;72.55;100172.91;3605289;39;20051;-64
2022/09/26 05:08:44;;;;;;;7.75;2.60;;;;;;;12.21;72.56;100188.47;3604584;39;20113;-63
2022/09/26 05:11:11;;;;;;;5.82;2.10;;;;;;;12.25;72.55;100178.28;3607586;39;20108;-62
2022/09/26 05:13:37;;;;;;;7.82;2.65;;;;;;;12.22;72.87;100165.91;3609617;39;20067;-64
2022/09/26 05:16:07;;;;;;;7.55;2.47;;;;;;;12.22;72.96;100168.59;3607196;39;20123;-62
2022/09/26 05:18:34;;;;;;;5.32;2.67;;;;;;;12.08;73.16;100133.78;3608802;39;20063;-64
2022/09/26 05:21:02;;;;;;;5.65;2.50;;;;;;;12.12;73.15;100140.69;3607900;39;20324;-64
2022/09/26 05:26:22;;;;;;;5.47;2.60;;;;;;;12.15;73.78;100145.81;3609691;39;20336;-63
2022/09/26 05:29:00;;;;;;;7.53;3.05;;;;;;;12.13;73.84;100142.38;3609032;39;20486;-64
2022/09/26 05:31:32;;;;;;;5.85;2.92;;;;;;;12.10;74.12;100120.22;3607326;39;20053;-63
2022/09/26 05:33:58;;;;;;;6.55;2.90;;;;;;;12.09;73.93;100130.16;3609532;39;20059;-64
2022/09/26 05:36:25;;;;;;;6.70;3.05;;;;;;;12.13;74.16;100131.59;3603630;39;20338;-64
2022/09/26 05:38:51;;;;;;;10.02;3.30;;;;;;;12.12;73.48;100124.53;3610030;39;20058;-64
2022/09/26 05:41:21;;;;;;;6.40;3.35;;;;;;;12.15;74.17;100126.97;3611346;39;20136;-64
2022/09/26 05:43:47;;;;;;;7.93;3.10;;;;;;;12.17;73.67;100130.38;3614904;39;20051;-64
2022/09/26 05:46:14;;;;;;;7.95;3.25;;;;;;;12.17;74.12;100122.28;3612966;39;20051;-64
2022/09/26 05:48:41;;;;;;;5.72;3.33;;;;;;;12.17;73.71;100130.38;3609612;39;20043;-63
2022/09/26 05:51:14;;;;;;;7.78;2.90;;;;;;;12.05;73.79;100107.09;3614246;39;20046;-64
2022/09/26 05:53:44;;;;;;;7.60;3.30;;;;;;;12.19;74.73;100123.03;3603091;39;20060;-63
2022/09/26 05:56:13;;;;;;;7.75;3.60;;;;;;;12.22;74.10;100119.25;3611700;39;20059;-64
2022/09/26 05:58:40;;;;;;;7.18;3.22;;;;;;;12.11;74.30;100106.63;3611558;39;20062;-63
2022/09/26 06:01:14;;;;;;;7.10;3.40;;;;;;;12.13;74.84;100110.06;3609194;39;20050;-63
2022/09/26 06:03:45;;;;;;;6.93;3.05;;;;;;;12.15;74.57;100121.56;3597755;39;20351;-64
2022/09/26 06:06:18;;;;;;;7.47;3.10;;;;;;;12.14;75.06;100109.06;3610870;39;20066;-64
2022/09/26 06:08:45;;;;;;;5.22;3.03;;;;;;;10.80;74.92;99881.88;3611169;39;20123;-63
2022/09/26 06:11:15;;;;;;;6.18;3.33;;;;;;;12.16;74.53;100104.44;3615021;39;21570;-65
2022/09/26 06:13:44;;;;;;;5.35;2.92;;;;;;;12.04;74.95;100070.38;3600519;39;20059;-63
2022/09/26 06:16:17;;;;;;;7.07;3.22;;;;;;;11.32;74.38;99942.34;3611275;39;20392;-62
2022/09/26 06:18:43;;;;;;;6.03;3.13;;;;;;;12.14;74.79;100068.66;3615393;39;20055;-62
2022/09/26 06:21:14;;;;;;;9.50;3.70;;;;;;;12.18;74.70;100066.56;3611876;39;20263;-62
2022/09/26 06:23:39;;;;;;;8.40;3.00;;;;;;;12.17;74.60;100052.25;3612920;39;20043;-62
2022/09/26 06:26:10;;;;;;;5.00;2.78;;;;;;;11.44;73.79;99934.25;3613624;39;20058;-63
2022/09/26 06:28:37;;;;;;;5.10;2.90;;;;;;;12.18;73.79;100048.59;3614003;39;20316;-62
2022/09/26 06:31:12;;;;;;;5.72;2.60;;;;;;;12.22;73.75;100033.88;3613588;39;20051;-65
2022/09/26 06:33:38;;;;;;;6.68;2.80;;;;;;;12.18;73.78;100020.75;3608521;39;20058;-62
2022/09/26 06:36:07;;;;;;;8.55;2.80;;;;;;;12.23;73.88;100013.16;3603726;39;20055;-64
2022/09/26 06:38:34;;;;;;;5.45;2.40;;;;;;;12.28;73.54;100022.59;3610395;39;20062;-62
2022/09/26 06:41:00;;;;;;;4.10;2.30;;;;;;;11.57;73.65;99900.00;3608980;39;20374;-61
2022/09/26 06:43:26;;;;;;;7.45;2.10;;;;;;;12.34;73.98;100013.16;3612365;39;20061;-62
2022/09/26 06:45:52;;;;;;;7.00;2.47;;;;;;;12.24;73.61;99994.19;3601719;39;20059;-62
2022/09/26 06:48:21;;;;;;;6.70;2.22;;;;;;;12.40;72.83;100003.69;3612653;39;20158;-62
2022/09/26 06:50:51;;;;;;;6.07;2.20;;;;;;;12.39;73.75;99999.28;3611970;39;20135;-62
2022/09/26 06:53:17;;;;;;;2.88;2.08;;;;;;;12.38;73.42;99989.50;3612079;39;20049;-61
2022/09/26 06:55:43;;;;;;;5.78;2.50;;;;;;;11.66;73.45;99852.63;3611257;39;20059;-62
2022/09/26 06:58:08;;;;;;;4.90;2.22;;;;;;;12.44;73.50;99978.22;3608343;39;20054;-63
2022/09/26 07:00:34;;;;;;;3.55;1.85;;;;;;;12.45;72.96;99966.44;3608210;39;20073;-61
2022/09/26 07:03:00;;;;;;;5.53;2.20;;;;;;;12.43;73.06;99960.31;3611813;39;20121;-62
2022/09/26 07:05:27;;;;;;;4.63;2.10;;;;;;;12.53;72.42;99977.44;3612369;39;20130;-62
2022/09/26 07:07:54;;;;;;;4.47;1.80;;;;;;;12.49;72.81;99954.41;3612513;39;20050;-63
2022/09/26 07:10:20;;;;;;;5.75;2.15;;;;;;;12.61;72.71;99955.22;3610158;39;20062;-62
2022/09/26 07:12:47;;;;;;;5.15;1.80;;;;;;;12.68;71.84;99956.41;3612196;39;20053;-63
2022/09/26 07:15:17;;;;;;;3.72;1.90;;;;;;;12.70;71.74;99944.50;3610777;39;20063;-62
2022/09/26 07:17:46;;;;;;;3.80;1.98;;;;;;;12.73;72.06;99940.72;3607404;39;20116;-63
2022/09/26 07:20:19;;;;;;;4.25;1.80;;;;;;;12.71;71.12;99930.03;3612524;39;20293;-62
2022/09/26 07:22:46;;;;;;;5.13;2.25;;;;;;;12.61;71.16;99910.25;3612099;39;20199;-63
2022/09/26 07:25:13;;;;;;;5.70;2.17;;;;;;;12.16;71.35;99826.06;3608771;39;20058;-63
2022/09/26 07:27:40;;;;;;;5.85;1.88;;;;;;;12.70;71.78;99924.78;3610134;39;20074;-63
2022/09/26 07:30:08;;;;;;;3.47;2.00;;;;;;;12.72;71.67;99923.69;3615015;39;20062;-63
2022/09/26 07:32:35;;;;;;;3.63;1.70;;;;;;;12.76;71.23;99925.13;3609935;39;20081;-62
2022/09/26 07:35:04;;;;;;;4.45;1.90;;;;;;;12.08;71.61;99818.63;3608947;39;20046;-64
2022/09/26 07:37:30;;;;;;;3.20;1.80;;;;;;;12.82;71.60;99922.91;3611352;39;20063;-63
2022/09/26 07:39:56;;;;;;;3.80;1.92;;;;;;;12.85;71.24;99928.03;3609436;39;20063;-63
2022/09/26 07:42:22;;;;;;;4.35;1.70;;;;;;;12.82;71.52;99933.69;3609433;39;20108;-63
2022/09/26 07:44:48;;;;;;;4.78;2.00;;;;;;;12.73;71.08;99909.19;3610225;39;20293;-62
2022/09/26 07:50:15;;;;;;;4.78;2.50;;;;;;;12.95;71.89;99912.75;3608278;39;20127;-62
2022/09/26 07:52:47;;;;;;;4.28;2.17;;;;;;;12.79;70.90;99888.94;3611351;39;20054;-62
2022/09/26 07:55:20;;;;;;;4.55;2.05;;;;;;;12.98;71.39;99915.19;3599131;39;20055;-62
2022/09/26 07:57:48;;;;;;;5.68;1.80;;;;;;;12.46;71.08;99819.88;3602565;39;20401;-63
2022/09/26 08:00:17;;;;;;;3.97;2.08;;;;;;;13.06;70.91;99909.13;3604883;39;20058;-63
2022/09/26 08:02:45;;;;;;;5.90;2.40;;;;;;;13.10;71.02;99906.03;3609730;39;20051;-63
2022/09/26 08:05:18;;;;;;;5.18;1.65;;;;;;;13.13;70.96;99892.28;3609189;39;20065;-63
2022/09/26 08:07:46;;;;;;;6.60;2.10;;;;;;;13.08;70.90;99869.38;3607048;39;20051;-62
2022/09/26 08:10:22;;;;;;;3.10;1.80;;;;;;;13.20;71.42;99892.59;3609822;39;20055;-62
2022/09/26 08:12:49;;;;;;;5.18;1.88;;;;;;;13.13;71.17;99870.69;3615822;39;20044;-62
2022/09/26 08:15:15;;;;;;;4.25;1.70;;;;;;;13.29;70.98;99880.13;3608550;39;20094;-62
2022/09/26 08:17:42;;;;;;;3.50;1.85;;;;;;;13.28;71.23;99878.44;3612028;39;20051;-62
2022/09/26 08:20:08;;;;;;;3.28;1.70;;;;;;;12.49;70.75;99738.75;3612215;39;20135;-63
2022/09/26 08:22:34;;;;;;;4.35;2.03;;;;;;;12.72;70.60;99785.31;3608456;39;20413;-65
2022/09/26 08:25:00;;;;;;;5.50;2.10;;;;;;;13.29;70.87;99886.41;3609153;39;20047;-63
2022/09/26 08:27:25;;;;;;;4.32;1.98;;;;;;;13.25;71.04;99871.47;3610542;39;20050;-62
2022/09/26 08:29:51;;;;;;;4.90;1.90;;;;;;;12.74;71.34;99786.84;3609583;39;20080;-63
2022/09/26 08:32:19;;;;;;;4.25;1.83;;;;;;;13.24;70.91;99876.00;3600583;39;20100;-62
2022/09/26 08:34:46;;;;;;;4.00;1.92;;;;;;;13.22;71.08;99869.88;3610514;39;20062;-62
2022/09/26 08:37:13;;;;;;;4.97;1.90;;;;;;;13.20;71.48;99861.06;3610073;39;20055;-62
2022/09/26 08:39:38;;;;;;;5.70;2.38;;;;;;;13.29;71.67;99856.72;3612969;39;20069;-62
2022/09/26 08:42:35;;;;;;;4.18;1.85;;;;;;;13.27;71.61;99872.19;3606469;39;20055;-62
2022/09/26 08:48:41;;;;;;;3.53;2.30;;;;;;;13.33;72.02;99863.56;3610910;39;20152;-62
2022/09/26 08:51:26;;;;;;;5.97;1.90;;;;;;;13.41;71.98;99860.16;3608127;39;20043;-61
2022/09/26 08:54:18;;;;;;;7.95;2.15;;;;;;;13.44;71.66;99870.69;3609870;39;20489;-62
2022/09/26 08:57:04;;;;;;;3.97;2.33;;;;;;;13.48;71.23;99847.84;3609252;39;20260;-64
2022/09/26 08:59:42;;;;;;;5.35;1.98;;;;;;;13.48;71.16;99853.25;3608160;39;20079;-63
2022/09/26 09:02:40;;;;;;;4.05;1.95;;;;;;;13.54;71.55;99844.59;3609931;39;20050;-62
2022/09/26 09:05:20;;;;;;;6.32;2.20;;;;;;;13.57;71.19;99846.97;3605586;39;20064;-62
2022/09/26 09:07:52;;;;;;;4.50;1.60;;;;;;;13.55;71.40;99851.69;3608588;39;20046;-62
2022/09/26 09:10:50;;;;;;;5.45;2.08;;;;;;;12.29;71.46;99624.63;3609570;39;20059;-63
2022/09/26 09:13:42;;;;;;;3.97;2.20;;;;;;;13.61;71.83;99828.69;3608240;39;20108;-61
2022/09/26 09:16:50;;;;;;;5.45;1.85;;;;;;;13.70;72.66;99833.22;3612227;39;20047;-62
2022/09/26 09:19:37;;;;;;;3.72;2.17;;;;;;;13.76;73.41;99834.53;3609349;39;20059;-61
2022/09/26 09:22:21;;;;;;;3.75;2.00;;;;;;;13.76;73.44;99829.13;3609788;39;20046;-61
2022/09/26 09:24:57;;;;;;;;;;;;;;;13.74;74.11;99817.63;3600317;39;20119;-62
2022/09/26 09:28:02;;;;;;;3.55;2.28;;;;;;;13.74;74.74;99806.81;3608915;39;19935;-61
2022/09/26 09:30:39;;;;;;;4.88;2.38;;;;;;;13.05;75.41;99692.44;3608350;39;20131;-62
2022/09/26 09:33:31;;;;;;;5.20;1.90;;;;;;;13.59;75.42;99799.09;3607436;39;20047;-63
2022/09/26 09:36:14;;;;;;;6.45;2.58;;;;;;;13.59;76.03;99788.31;3610132;39;20082;-62
2022/09/26 09:38:47;;;;;;;4.57;2.30;;;;;;;13.56;76.68;99791.28;3609011;39;20051;-63
2022/09/26 09:41:21;;;;;;;7.72;2.92;;;;;;;13.56;77.29;99791.28;3607577;39;20612;-62
2022/09/26 09:43:54;;;;;;;5.18;2.67;;;;;;;13.46;77.25;99775.06;3611096;39;20051;-62
2022/09/26 09:46:27;;;;;;;5.97;2.30;;;;;;;13.46;77.92;99779.63;3607922;39;20151;-62
2022/09/26 09:49:22;;;;;;;4.28;2.20;;;;;;;13.35;78.34;99777.03;3600335;39;20375;-62
2022/09/26 09:52:18;;;;;;;3.15;2.25;;;;;;;13.35;78.30;99764.41;3604844;39;20066;-63
2022/09/26 09:55:36;;;;;;;5.30;2.67;;;;;;;13.28;79.43;99765.09;3607116;39;20059;-62
2022/09/26 09:58:41;;;;;;;6.75;2.80;;;;;;;13.20;79.70;99746.88;3612446;39;20063;-64
2022/09/26 10:01:41;;;;;;;12.20;5.50;;;;;;;13.13;79.61;99754.66;3606781;39;20046;-65
2022/09/26 10:04:27;;;;;;;52.55;30.55;;;;;;;13.18;80.91;99738.88;3594524;39;20044;-63
2022/09/26 10:06:54;;;;;;;20.23;11.63;;;;;;;12.58;80.83;99651.69;3606972;39;20051;-62
2022/09/26 10:09:37;;;;;;;14.20;6.38;;;;;;;13.26;80.90;99737.38;3600115;39;20398;-61
2022/09/26 10:12:28;;;;;;;41.67;19.50;;;;;;;13.23;81.05;99715.06;3609772;39;20450;-62
2022/09/26 10:15:19;;;;;;;17.80;8.45;;;;;;;12.78;80.51;99637.28;3610203;39;20047;-62
2022/09/26 10:17:59;;;;;;;28.13;16.40;;;;;;;13.34;80.92;99724.03;3607818;39;20123;-64
2022/09/26 10:20:51;;;;;;;25.48;15.60;;;;;;;13.42;81.38;99726.91;3607097;39;20043;-61
2022/09/26 10:23:33;;;;;;;10.68;7.63;;;;;;;13.42;80.50;99711.56;3611457;39;20043;-61
2022/09/26 10:26:07;;;;;;;5.60;3.40;;;;;;;13.03;80.68;99648.53;3607729;39;20055;-62
2022/09/26 10:28:47;;;;;;;6.55;3.10;;;;;;;13.46;80.80;99710.28;3611458;39;20115;-62
2022/09/26 10:31:36;;;;;;;7.60;3.55;;;;;;;13.45;81.22;99710.44;3603301;39;20051;-62
2022/09/26 10:34:06;;;;;;;6.20;3.50;;;;;;;13.44;80.91;99698.75;3610724;39;20054;-62
2022/09/26 10:36:39;;;;;;;10.25;5.85;;;;;;;13.36;79.93;99700.47;3609528;39;20069;-62
2022/09/26 10:42:21;;;;;;;7.75;5.20;;;;;;;13.30;80.38;99692.94;3613518;39;20077;-62
2022/09/26 10:44:49;;;;;;;7.53;3.72;;;;;;;13.29;80.92;99696.59;3613039;39;20047;-61
2022/09/26 10:47:22;;;;;;;7.90;4.57;;;;;;;13.33;80.91;99685.41;3611304;39;20047;-62
2022/09/26 10:49:55;;;;;;;7.20;4.28;;;;;;;13.33;80.94;99677.31;3612531;39;20054;-62
2022/09/26 10:52:52;;;;;;;5.60;3.13;;;;;;;13.34;80.31;99687.09;3611754;39;20087;-62
2022/09/26 10:56:04;;;;;;;5.13;3.17;;;;;;;12.67;80.47;99585.31;3607447;39;20083;-62
2022/09/26 10:58:31;;;;;;;8.40;2.88;;;;;;;13.35;81.06;99671.75;3570040;40;20603;-61
2022/09/26 11:00:59;;;;;;;5.78;3.30;;;;;;;13.29;81.24;99672.31;3574224;40;20052;-61
2022/09/26 11:03:42;;;;;;;7.60;3.50;;;;;;;13.34;82.18;99670.91;3586031;39;20058;-62
2022/09/26 11:06:32;;;;;;;8.23;3.22;;;;;;;13.33;81.50;99673.75;3613860;39;20042;-63
2022/09/26 11:09:02;;;;;;;3.65;2.70;;;;;;;13.02;81.55;99622.56;3602232;39;20115;-62
2022/09/26 11:11:38;;;;;;;6.03;4.28;;;;;;;13.28;81.59;99674.16;3611607;39;20071;-62
2022/09/26 11:14:07;;;;;;;12.27;5.68;;;;;;;13.28;82.06;99667.94;3608828;39;20394;-62
2022/09/26 11:16:50;;;;;;;8.23;5.28;;;;;;;13.28;82.81;99659.81;3616428;39;20062;-61
2022/09/26 11:19:47;;;;;;;9.07;4.00;;;;;;;13.20;82.89;99658.66;3612037;39;20053;-61
2022/09/26 11:22:33;;;;;;;7.18;4.15;;;;;;;13.27;83.28;99663.53;3608095;39;20048;-61
2022/09/26 11:25:10;;;;;;;6.60;3.55;;;;;;;13.18;83.43;99660.63;3610852;39;20119;-61
2022/09/26 11:28:05;;;;;;;7.35;3.10;;;;;;;13.15;83.32;99651.97;3609861;39;20043;-61
2022/09/26 11:30:40;;;;;;;8.55;4.05;;;;;;;13.06;83.18;99650.97;3611683;39;20135;-61
2022/09/26 11:33:17;;;;;;;12.57;4.75;;;;;;;13.05;84.08;99634.94;3616798;39;20050;-62
2022/09/26 11:36:25;;;;;;;4.95;3.10;;;;;;;12.97;84.00;99627.50;3610353;39;20073;-61
2022/09/26 11:39:21;;;;;;;6.90;3.45;;;;;;;13.01;84.82;99637.91;3616487;39;20118;-61
2022/09/26 11:42:02;;;;;;;4.85;3.20;;;;;;;13.04;85.20;99636.78;3609078;39;20056;-63
2022/09/26 11:44:54;;;;;;;5.40;3.53;;;;;;;13.06;85.07;99633.91;3608354;39;20055;-62
2022/09/26 11:47:41;;;;;;;7.55;3.85;;;;;;;13.07;85.12;99639.19;3613237;39;20356;-61
2022/09/26 11:51:06;;;;;;;8.52;5.50;;;;;;;13.03;84.94;99640.44;3609270;39;20065;-61
2022/09/26 11:54:18;;;;;;;12.15;6.45;;;;;;;13.05;85.80;99630.38;3609537;39;20108;-62
2022/09/26 11:57:13;;;;;;;10.88;4.43;;;;;;;12.50;85.16;99544.56;3615260;39;20484;-62
2022/09/26 12:00:05;;;;;;;5.72;3.20;;;;;;;13.03;85.33;99629.66;3605378;39;20186;-62
2022/09/26 12:03:21;;;;;;;5.50;3.03;;;;;;;13.09;84.90;99625.53;3614939;39;20055;-63
2022/09/26 12:06:01;;;;;;;4.63;3.15;;;;;;;13.13;85.46;99630.53;3609503;39;20331;-63
2022/09/26 12:09:19;;;;;;;6.15;3.22;;;;;;;13.13;84.44;99635.06;3597981;39;20058;-63
2022/09/26 12:12:11;;;;;;;5.18;3.25;;;;;;;13.14;84.19;99621.44;3615869;39;20134;-63
2022/09/26 12:15:13;;;;;;;6.15;3.05;;;;;;;13.11;84.64;99608.22;3610621;39;20047;-65
2022/09/26 12:18:07;;;;;;;5.63;3.30;;;;;;;13.16;84.90;99618.59;3612595;39;20069;-62